createdAt,value
2024-02-02T00:00:11.142Z,103414.41
2024-02-02T00:02:40.363Z,103393.19
2024-02-02T00:05:10.339Z,103382.03
2024-02-02T00:07:40.257Z,103349.16
2024-02-02T00:10:09.946Z,103355.53
2024-02-02T00:12:38.549Z,103315.81
2024-02-02T00:15:08.179Z,103367.03
2024-02-02T00:17:36.673Z,103333.44
2024-02-02T00:20:06.400Z,103348.97
2024-02-02T00:22:35.022Z,103354.09
2024-02-02T00:25:05.511Z,103337.19
2024-02-02T00:27:34.256Z,103326.75
2024-02-02T00:30:02.940Z,103313.66
2024-02-02T00:32:31.615Z,103316.22
2024-02-02T00:35:00.371Z,103286.34
2024-02-02T00:37:28.918Z,103301.06
2024-02-02T00:39:57.417Z,103304.44
2024-02-02T00:42:27.639Z,103313.38
2024-02-02T00:44:56.319Z,103286.03
2024-02-02T00:47:24.854Z,103321.00
2024-02-02T00:49:53.487Z,103334.94
2024-02-02T00:52:22.012Z,103314.75
2024-02-02T00:54:50.931Z,103345.56
2024-02-02T00:57:19.560Z,103338.63
2024-02-02T00:59:51.648Z,103326.16
2024-02-02T01:02:20.625Z,103332.38
2024-02-02T01:04:49.435Z,103340.69
2024-02-02T01:07:18.968Z,103298.75
2024-02-02T01:09:47.908Z,103318.25
2024-02-02T01:12:16.586Z,103323.03
2024-02-02T01:14:45.120Z,103273.91
2024-02-02T01:17:15.171Z,103309.06
2024-02-02T01:19:43.703Z,103313.66
2024-02-02T01:22:12.294Z,103290.16
2024-02-02T01:24:40.934Z,103308.66
2024-02-02T01:27:09.863Z,103293.19
2024-02-02T01:29:38.401Z,103277.63
2024-02-02T01:32:08.238Z,103273.13
2024-02-02T01:34:38.223Z,103256.47
2024-02-02T01:37:06.951Z,103270.13
2024-02-02T01:39:35.685Z,103276.03
2024-02-02T01:42:04.866Z,103282.84
2024-02-02T01:44:33.532Z,103282.28
2024-02-02T01:47:04.051Z,103290.00
2024-02-02T01:49:32.992Z,103281.78
2024-02-02T01:52:03.578Z,103283.50
2024-02-02T01:54:33.391Z,103280.69
2024-02-02T01:57:02.091Z,103271.91
2024-02-02T01:59:31.282Z,103274.75
2024-02-02T02:02:00.223Z,103274.84
2024-02-02T02:04:29.109Z,103239.06
2024-02-02T02:06:58.131Z,103235.66
2024-02-02T02:09:28.445Z,103238.56
2024-02-02T02:11:58.121Z,103238.75
2024-02-02T02:14:26.779Z,103229.09
2024-02-02T02:16:55.613Z,103237.47
2024-02-02T02:19:24.586Z,103246.78
2024-02-02T02:21:54.687Z,103245.72
2024-02-02T02:24:23.406Z,103225.78
2024-02-02T02:26:52.318Z,103213.19
2024-02-02T02:29:20.816Z,103232.72
2024-02-02T02:31:55.900Z,103232.03
2024-02-02T02:34:27.805Z,103212.00
2024-02-02T02:36:57.988Z,103226.16
2024-02-02T02:39:26.484Z,103181.16
2024-02-02T02:41:55.125Z,103209.72
2024-02-02T02:44:23.681Z,103194.38
2024-02-02T02:46:52.810Z,103211.56
2024-02-02T02:49:21.892Z,103206.50
2024-02-02T02:51:50.894Z,103210.47
2024-02-02T02:54:20.755Z,103214.63
2024-02-02T02:56:49.376Z,103202.88
2024-02-02T02:59:19.380Z,103201.75
2024-02-02T03:01:48.518Z,103185.28
2024-02-02T03:04:17.203Z,103189.38
2024-02-02T03:06:46.018Z,103169.50
2024-02-02T03:09:15.150Z,103163.75
2024-02-02T03:11:45.051Z,103186.19
2024-02-02T03:14:13.762Z,103144.91
2024-02-02T03:16:42.313Z,103163.25
2024-02-02T03:19:10.942Z,103173.22
2024-02-02T03:21:39.532Z,103154.00
2024-02-02T03:24:10.719Z,103161.53
2024-02-02T03:26:39.375Z,103161.25
2024-02-02T03:29:09.375Z,103151.81
2024-02-02T03:31:37.943Z,103158.84
2024-02-02T03:34:06.583Z,103168.47
2024-02-02T03:36:35.353Z,103160.00
2024-02-02T03:39:04.368Z,103167.84
2024-02-02T03:41:33.150Z,103152.88
2024-02-02T03:44:01.622Z,103167.78
2024-02-02T03:46:31.540Z,103162.75
2024-02-02T03:49:01.299Z,103113.41
2024-02-02T03:51:29.996Z,103149.78
2024-02-02T03:53:58.673Z,103153.16
2024-02-02T03:56:28.034Z,103138.44
2024-02-02T03:58:56.518Z,103144.59
2024-02-02T04:01:25.432Z,103151.47
2024-02-02T04:03:55.459Z,103141.59
2024-02-02T04:06:24.068Z,103121.91
2024-02-02T04:08:52.770Z,103147.09
2024-02-02T04:11:21.273Z,103148.94
2024-02-02T04:13:50.037Z,103148.34
2024-02-02T04:16:18.590Z,103162.75
2024-02-02T04:18:47.496Z,103152.91
2024-02-02T04:21:17.570Z,103149.09
2024-02-02T04:23:46.224Z,103153.13
2024-02-02T04:26:14.751Z,103147.13
2024-02-02T04:28:43.384Z,103165.22
2024-02-02T04:31:12.264Z,103160.09
2024-02-02T04:33:40.889Z,103172.22
2024-02-02T04:36:10.339Z,103179.75
2024-02-02T04:38:40.681Z,103159.13
2024-02-02T04:41:09.120Z,103142.22
2024-02-02T04:43:37.751Z,103167.47
2024-02-02T04:46:07.049Z,103076.66
2024-02-02T04:48:35.711Z,103165.47
2024-02-02T04:51:04.225Z,103161.09
2024-02-02T04:53:32.723Z,103165.09
2024-02-02T04:56:02.616Z,103152.59
2024-02-02T04:58:31.361Z,103128.50
2024-02-02T05:00:59.963Z,103151.19
2024-02-02T05:03:31.776Z,103148.81
2024-02-02T05:06:00.704Z,103125.78
2024-02-02T05:08:29.625Z,103123.59
2024-02-02T05:10:58.095Z,103128.84
2024-02-02T05:13:28.664Z,103124.16
2024-02-02T05:15:57.349Z,103120.19
2024-02-02T05:18:26.013Z,103119.56
2024-02-02T05:20:54.712Z,103105.56
2024-02-02T05:23:24.249Z,103090.81
2024-02-02T05:25:52.826Z,103113.81
2024-02-02T05:28:21.420Z,103104.75
2024-02-02T05:30:51.438Z,103098.72
2024-02-02T05:33:20.132Z,103099.28
2024-02-02T05:35:48.951Z,103097.88
2024-02-02T05:38:17.453Z,103100.78
2024-02-02T05:40:45.963Z,103096.72
2024-02-02T05:43:15.066Z,103097.69
2024-02-02T05:45:43.957Z,103086.31
2024-02-02T05:48:14.177Z,102962.69
2024-02-02T05:50:43.295Z,103029.97
2024-02-02T05:53:11.770Z,103082.34
2024-02-02T05:55:40.546Z,103083.94
2024-02-02T05:58:09.219Z,103095.91
2024-02-02T06:00:38.355Z,103087.16
2024-02-02T06:03:07.309Z,103054.78
2024-02-02T06:05:40.131Z,103087.31
2024-02-02T06:08:09.121Z,103088.22
2024-02-02T06:10:37.683Z,103083.78
2024-02-02T06:13:06.490Z,103079.19
2024-02-02T06:15:35.134Z,103089.03
2024-02-02T06:18:03.814Z,103088.63
2024-02-02T06:20:32.388Z,103093.00
2024-02-02T06:23:04.208Z,103088.53
2024-02-02T06:25:33.372Z,103093.94
2024-02-02T06:28:03.253Z,103087.31
2024-02-02T06:30:32.073Z,103051.34
2024-02-02T06:33:02.031Z,103087.44
2024-02-02T06:35:31.693Z,103078.72
2024-02-02T06:38:01.741Z,103069.06
2024-02-02T06:40:30.414Z,103086.59
2024-02-02T06:42:59.137Z,103089.38
2024-02-02T06:45:28.613Z,103091.75
2024-02-02T06:47:57.479Z,103089.28
2024-02-02T06:50:26.277Z,103081.88
2024-02-02T06:52:55.251Z,103076.41
2024-02-02T06:55:26.008Z,103063.31
2024-02-02T06:57:55.086Z,103077.69
2024-02-02T07:00:24.312Z,103083.66
2024-02-02T07:02:53.237Z,103071.03
2024-02-02T07:05:23.477Z,103084.59
2024-02-02T07:07:52.514Z,103043.00
2024-02-02T07:10:24.678Z,103068.38
2024-02-02T07:13:00.530Z,103076.66
2024-02-02T07:15:34.041Z,103075.31
2024-02-02T07:18:04.772Z,103090.06
2024-02-02T07:21:05.667Z,103046.63
2024-02-02T07:23:40.769Z,103094.81
2024-02-02T07:26:27.962Z,103058.97
2024-02-02T07:28:57.325Z,103092.56
2024-02-02T07:31:43.210Z,103089.78
2024-02-02T07:34:40.677Z,103091.44
2024-02-02T07:37:13.757Z,103102.41
2024-02-02T07:39:42.392Z,103111.13
2024-02-02T07:42:12.284Z,103109.47
2024-02-02T07:44:40.874Z,103116.59
2024-02-02T07:47:09.423Z,103109.06
2024-02-02T07:49:38.223Z,103092.81
2024-02-02T07:52:07.795Z,103100.00
2024-02-02T07:54:36.453Z,103099.91
2024-02-02T07:57:05.595Z,103099.69
2024-02-02T07:59:35.615Z,103036.75
2024-02-02T08:02:04.315Z,103060.25
2024-02-02T08:04:32.844Z,103086.53
2024-02-02T08:07:01.520Z,103085.16
2024-02-02T08:09:30.220Z,103093.81
2024-02-02T08:11:59.090Z,103073.13
2024-02-02T08:14:27.588Z,103095.06
2024-02-02T08:16:57.642Z,103081.66
2024-02-02T08:19:26.533Z,103076.06
2024-02-02T08:21:57.145Z,103068.38
2024-02-02T08:24:25.757Z,103076.16
2024-02-02T08:26:54.524Z,103079.59
2024-02-02T08:29:23.510Z,103045.66
2024-02-02T08:31:52.708Z,103049.84
2024-02-02T08:34:22.761Z,103046.84
2024-02-02T08:36:51.641Z,103073.38
2024-02-02T08:39:20.180Z,103063.69
2024-02-02T08:41:48.971Z,103068.69
2024-02-02T08:44:28.303Z,103061.97
2024-02-02T08:46:57.482Z,103070.94
2024-02-02T08:49:48.594Z,103063.38
2024-02-02T08:52:32.334Z,103050.13
2024-02-02T08:55:00.668Z,103053.78
2024-02-02T08:57:52.119Z,103049.81
2024-02-02T09:00:40.637Z,103062.19
2024-02-02T09:03:27.557Z,103061.56
2024-02-02T09:05:59.985Z,103022.41
2024-02-02T09:08:47.749Z,103051.09
2024-02-02T09:11:21.264Z,103054.88
2024-02-02T09:13:53.388Z,103010.19
2024-02-02T09:16:22.728Z,103012.09
2024-02-02T09:18:57.875Z,103050.81
2024-02-02T09:21:35.139Z,103061.72
2024-02-02T09:24:05.694Z,103054.25
2024-02-02T09:26:40.256Z,103049.81
2024-02-02T09:29:11.759Z,103032.66
2024-02-02T09:31:41.001Z,103055.06
2024-02-02T09:34:11.972Z,103066.28
2024-02-02T09:36:42.144Z,103054.44
2024-02-02T09:39:54.817Z,103056.22
2024-02-02T09:43:07.169Z,103052.69
2024-02-02T09:46:02.125Z,103042.84
2024-02-02T09:48:52.145Z,103065.38
2024-02-02T09:51:36.341Z,103057.59
2024-02-02T09:54:19.654Z,103044.41
2024-02-02T09:57:01.657Z,103053.69
2024-02-02T09:59:47.595Z,103049.13
2024-02-02T10:02:54.059Z,103040.53
2024-02-02T10:05:37.463Z,103034.13
2024-02-02T10:08:30.781Z,103037.22
2024-02-02T10:11:23.966Z,103035.84
2024-02-02T10:14:14.074Z,103053.25
2024-02-02T10:16:56.805Z,103052.09
2024-02-02T10:20:05.767Z,103035.06
2024-02-02T10:23:00.389Z,103057.69
2024-02-02T10:25:54.073Z,103050.00
2024-02-02T10:28:41.160Z,103019.97
2024-02-02T10:31:30.241Z,103066.78
2024-02-02T10:34:21.018Z,103041.91
2024-02-02T10:37:25.177Z,103035.22
2024-02-02T10:40:23.345Z,103057.88
2024-02-02T10:43:26.503Z,103070.28
2024-02-02T10:46:20.242Z,103066.78
2024-02-02T10:49:10.022Z,103027.09
2024-02-02T10:51:49.044Z,103052.31
2024-02-02T10:54:37.719Z,103031.69
2024-02-02T10:57:24.170Z,103001.97
2024-02-02T11:00:09.661Z,103020.09
2024-02-02T11:03:08.748Z,103028.06
2024-02-02T11:05:43.660Z,103007.38
2024-02-02T11:08:19.346Z,103022.75
2024-02-02T11:10:59.618Z,103002.56
2024-02-02T11:13:41.818Z,103022.25
2024-02-02T11:16:29.328Z,102999.75
2024-02-02T11:19:19.288Z,103007.34
2024-02-02T11:22:08.817Z,102994.63
2024-02-02T11:24:53.990Z,103002.97
2024-02-02T11:27:29.431Z,102982.44
2024-02-02T11:30:07.440Z,102996.50
2024-02-02T11:33:08.467Z,103004.88
2024-02-02T11:35:51.923Z,103014.41
2024-02-02T11:38:33.517Z,103011.16
2024-02-02T11:41:03.551Z,103018.13
2024-02-02T11:43:33.330Z,103019.34
2024-02-02T11:46:05.049Z,103011.53
2024-02-02T11:48:38.464Z,103007.16
2024-02-02T11:51:09.486Z,102999.09
2024-02-02T11:53:49.657Z,103007.84
2024-02-02T11:56:26.672Z,103016.66
2024-02-02T11:59:05.697Z,102992.88
2024-02-02T12:01:47.351Z,102981.19
2024-02-02T12:04:33.532Z,102989.88
2024-02-02T12:07:28.060Z,103007.25
2024-02-02T12:10:05.168Z,102998.44
2024-02-02T12:12:37.553Z,102999.66
2024-02-02T12:15:11.002Z,102999.09
2024-02-02T12:17:40.858Z,103011.44
2024-02-02T12:20:18.924Z,103010.56
2024-02-02T12:22:51.182Z,103001.63
2024-02-02T12:25:20.434Z,102975.69
2024-02-02T12:27:49.283Z,102971.00
2024-02-02T12:30:18.147Z,102943.09
2024-02-02T12:32:55.664Z,102973.56
2024-02-02T12:35:25.710Z,102973.91
2024-02-02T12:37:57.072Z,102954.13
2024-02-02T12:40:26.617Z,102977.25
2024-02-02T12:42:59.611Z,102951.19
2024-02-02T12:45:29.182Z,102977.03
2024-02-02T12:47:59.308Z,102953.16
2024-02-02T12:50:28.091Z,102935.53
2024-02-02T12:52:59.529Z,102918.16
2024-02-02T12:55:28.162Z,102932.00
2024-02-02T12:57:56.917Z,102953.81
2024-02-02T13:00:26.787Z,102938.03
2024-02-02T13:02:56.670Z,102955.66
2024-02-02T13:05:27.830Z,102952.38
2024-02-02T13:07:58.370Z,102941.31
2024-02-02T13:10:41.286Z,102916.13
2024-02-02T13:13:15.370Z,102927.19
2024-02-02T13:15:44.272Z,102921.91
2024-02-02T13:18:16.221Z,102900.66
2024-02-02T13:20:47.618Z,102903.72
2024-02-02T13:23:26.314Z,102907.47
2024-02-02T13:25:59.624Z,102912.25
2024-02-02T13:28:30.571Z,102893.28
2024-02-02T13:31:00.680Z,102915.59
2024-02-02T13:33:31.244Z,102923.38
2024-02-02T13:36:02.646Z,102908.75
2024-02-02T13:38:34.627Z,102916.75
2024-02-02T13:41:05.603Z,102881.88
2024-02-02T13:43:36.608Z,102894.69
2024-02-02T13:46:08.545Z,102859.34
2024-02-02T13:48:40.478Z,102901.38
2024-02-02T13:51:11.387Z,102855.16
2024-02-02T13:53:41.558Z,102892.63
2024-02-02T13:56:11.774Z,102859.31
2024-02-02T13:58:41.804Z,102889.44
2024-02-02T14:01:15.993Z,102862.94
2024-02-02T14:03:46.657Z,102886.94
2024-02-02T14:06:16.890Z,102878.41
2024-02-02T14:08:49.261Z,102866.25
2024-02-02T14:11:24.814Z,102873.69
2024-02-02T14:13:54.209Z,102863.97
2024-02-02T14:16:24.434Z,102875.53
2024-02-02T14:19:02.981Z,102855.47
2024-02-02T14:21:34.540Z,102854.41
2024-02-02T14:24:12.207Z,102875.28
2024-02-02T14:26:51.631Z,102866.88
2024-02-02T14:29:20.866Z,102871.75
2024-02-02T14:31:50.048Z,102874.41
2024-02-02T14:34:19.080Z,102877.91
2024-02-02T14:36:48.167Z,102874.94
2024-02-02T14:39:26.224Z,102871.19
2024-02-02T14:41:56.137Z,102763.41
2024-02-02T14:44:25.607Z,102846.94
2024-02-02T14:46:54.351Z,102843.94
2024-02-02T14:49:25.394Z,102765.31
2024-02-02T14:51:55.066Z,102834.78
2024-02-02T14:54:25.756Z,102854.72
2024-02-02T14:56:54.698Z,102864.09
2024-02-02T14:59:29.933Z,102847.59
2024-02-02T15:01:59.137Z,102851.44
2024-02-02T15:04:27.685Z,102842.63
2024-02-02T15:06:56.535Z,102855.47
2024-02-02T15:09:27.469Z,102859.06
2024-02-02T15:11:59.825Z,102823.44
2024-02-02T15:14:33.545Z,102856.78
2024-02-02T15:17:02.946Z,102854.03
2024-02-02T15:19:31.740Z,102844.50
2024-02-02T15:22:00.520Z,102845.34
2024-02-02T15:24:31.909Z,102836.47
2024-02-02T15:27:02.861Z,102839.72
2024-02-02T15:29:33.325Z,102827.09
2024-02-02T15:32:03.461Z,102823.28
2024-02-02T15:34:32.565Z,102828.94
2024-02-02T15:37:01.444Z,102839.03
2024-02-02T15:39:37.858Z,102812.53
2024-02-02T15:42:08.084Z,102826.59
2024-02-02T15:44:37.386Z,102796.28
2024-02-02T15:47:07.131Z,102820.28
2024-02-02T15:49:36.129Z,102839.69
2024-02-02T15:52:05.459Z,102833.19
2024-02-02T15:54:35.607Z,102831.09
2024-02-02T15:57:05.629Z,102841.25
2024-02-02T15:59:34.589Z,102800.91
2024-02-02T16:02:05.290Z,102840.44
2024-02-02T16:04:34.604Z,102843.78
2024-02-02T16:07:06.804Z,102817.63
2024-02-02T16:09:42.506Z,102826.06
2024-02-02T16:12:14.143Z,102839.59
2024-02-02T16:14:43.845Z,102842.81
2024-02-02T16:17:12.843Z,102839.44
2024-02-02T16:19:41.611Z,102803.38
2024-02-02T16:22:10.861Z,102843.13
2024-02-02T16:24:40.936Z,102826.41
2024-02-02T16:27:09.693Z,102843.38
2024-02-02T16:29:38.357Z,102839.78
2024-02-02T16:32:08.227Z,102816.34
2024-02-02T16:34:37.197Z,102805.25
2024-02-02T16:37:06.184Z,102829.31
2024-02-02T16:39:34.960Z,102836.09
2024-02-02T16:42:05.154Z,102841.19
2024-02-02T16:44:33.651Z,102826.06
2024-02-02T16:47:03.681Z,102841.00
2024-02-02T16:49:32.529Z,102843.66
2024-02-02T16:52:01.427Z,102853.28
2024-02-02T16:54:31.725Z,102851.50
2024-02-02T16:57:00.660Z,102858.28
2024-02-02T16:59:30.907Z,102839.94
2024-02-02T17:01:59.491Z,102841.19
2024-02-02T17:04:28.187Z,102848.44
2024-02-02T17:06:57.382Z,102855.81
2024-02-02T17:09:26.128Z,102857.53
2024-02-02T17:11:54.951Z,102847.84
2024-02-02T17:14:23.634Z,102870.09
2024-02-02T17:16:53.579Z,102876.31
2024-02-02T17:19:22.311Z,102872.13
2024-02-02T17:21:50.948Z,102837.38
2024-02-02T17:24:19.634Z,102873.53
2024-02-02T17:26:50.480Z,102851.09
2024-02-02T17:29:19.215Z,102877.59
2024-02-02T17:31:48.963Z,102882.72
2024-02-02T17:34:19.213Z,102880.91
2024-02-02T17:36:48.057Z,102879.94
2024-02-02T17:39:16.816Z,102887.94
2024-02-02T17:41:45.515Z,102883.16
2024-02-02T17:44:15.135Z,102849.13
2024-02-02T17:46:45.305Z,102882.53
2024-02-02T17:49:14.088Z,102880.47
2024-02-02T17:51:44.967Z,102880.69
2024-02-02T17:54:14.170Z,102866.19
2024-02-02T17:56:43.111Z,102878.97
2024-02-02T17:59:11.904Z,102833.34
2024-02-02T18:01:40.784Z,102862.22
2024-02-02T18:04:09.750Z,102841.75
2024-02-02T18:06:38.410Z,102874.63
2024-02-02T18:09:08.700Z,102802.47
2024-02-02T18:11:37.378Z,102865.31
2024-02-02T18:14:06.010Z,102893.47
2024-02-02T18:16:37.025Z,102900.44
2024-02-02T18:19:05.717Z,102892.94
2024-02-02T18:21:34.616Z,102872.38
2024-02-02T18:24:04.131Z,102885.72
2024-02-02T18:26:34.258Z,102864.72
2024-02-02T18:29:03.470Z,102881.22
2024-02-02T18:31:32.354Z,102890.63
2024-02-02T18:34:01.110Z,102883.78
2024-02-02T18:36:29.917Z,102859.84
2024-02-02T18:38:58.528Z,102902.75
2024-02-02T18:41:29.981Z,102898.94
2024-02-02T18:44:00.344Z,102853.69
2024-02-02T18:46:31.168Z,102884.97
2024-02-02T18:49:00.497Z,102880.81
2024-02-02T18:51:29.490Z,102903.03
2024-02-02T18:53:58.098Z,102914.72
2024-02-02T18:56:26.969Z,102882.56
2024-02-02T18:58:55.714Z,102922.94
2024-02-02T19:01:26.867Z,102891.94
2024-02-02T19:03:55.753Z,102932.78
2024-02-02T19:06:25.224Z,102908.81
2024-02-02T19:08:55.499Z,102922.09
2024-02-02T19:11:24.309Z,102955.84
2024-02-02T19:13:53.246Z,102917.38
2024-02-02T19:16:23.982Z,102906.94
2024-02-02T19:18:54.741Z,102936.91
2024-02-02T19:21:26.366Z,102913.78
2024-02-02T19:23:55.997Z,102907.44
2024-02-02T19:26:25.101Z,102937.16
2024-02-02T19:28:54.277Z,102911.72
2024-02-02T19:31:24.342Z,102915.06
2024-02-02T19:33:54.850Z,102913.56
2024-02-02T19:36:25.628Z,102929.56
2024-02-02T19:38:55.931Z,102944.75
2024-02-02T19:41:26.618Z,102942.06
2024-02-02T19:43:55.630Z,102941.13
2024-02-02T19:46:25.885Z,102952.13
2024-02-02T19:48:58.299Z,102955.34
2024-02-02T19:51:28.943Z,102913.91
2024-02-02T19:53:58.128Z,102940.22
2024-02-02T19:56:27.138Z,102951.00
2024-02-02T19:58:56.878Z,102964.25
2024-02-02T20:01:26.509Z,102972.13
2024-02-02T20:03:57.329Z,102967.78
2024-02-02T20:06:26.246Z,102979.94
2024-02-02T20:08:54.876Z,102972.06
2024-02-02T20:11:26.632Z,102973.28
2024-02-02T20:13:55.528Z,102981.25
2024-02-02T20:16:24.174Z,102983.44
2024-02-02T20:18:52.854Z,102964.59
2024-02-02T20:21:24.874Z,102957.75
2024-02-02T20:23:55.642Z,102962.44
2024-02-02T20:26:25.546Z,102931.88
2024-02-02T20:28:55.925Z,102977.66
2024-02-02T20:31:27.945Z,102933.94
2024-02-02T20:33:57.881Z,102967.00
2024-02-02T20:36:30.903Z,102967.66
2024-02-02T20:38:59.665Z,102970.00
2024-02-02T20:41:30.568Z,102957.06
2024-02-02T20:43:59.313Z,102975.38
2024-02-02T20:46:28.105Z,102975.75
2024-02-02T20:48:56.938Z,102982.31
2024-02-02T20:51:27.347Z,102983.16
2024-02-02T20:53:56.042Z,102945.03
2024-02-02T20:56:24.941Z,102946.41
2024-02-02T20:58:53.626Z,102963.78
2024-02-02T21:01:22.699Z,102955.41
2024-02-02T21:03:51.680Z,102955.22
2024-02-02T21:06:20.693Z,102931.88
2024-02-02T21:08:52.469Z,102959.22
2024-02-02T21:11:21.627Z,102873.72
2024-02-02T21:13:50.276Z,102948.97
2024-02-02T21:16:19.334Z,102939.47
2024-02-02T21:18:48.770Z,102946.25
2024-02-02T21:21:22.177Z,102898.31
2024-02-02T21:23:52.960Z,102935.84
2024-02-02T21:26:21.603Z,102910.88
2024-02-02T21:28:50.120Z,102855.56
2024-02-02T21:31:18.979Z,102945.53
2024-02-02T21:33:47.656Z,102925.56
2024-02-02T21:36:17.199Z,102943.16
2024-02-02T21:38:45.932Z,102877.59
2024-02-02T21:41:16.171Z,102911.69
2024-02-02T21:43:44.601Z,102918.34
2024-02-02T21:46:21.380Z,102931.84
2024-02-02T21:48:50.529Z,102917.41
2024-02-02T21:51:19.271Z,102943.88
2024-02-02T21:53:47.940Z,102917.03
2024-02-02T21:56:19.599Z,102952.06
2024-02-02T21:58:48.188Z,102941.88
2024-02-02T22:01:16.925Z,102837.69
2024-02-02T22:03:45.759Z,102946.34
2024-02-02T22:06:15.964Z,102943.41
2024-02-02T22:08:44.774Z,102910.69
2024-02-02T22:11:14.514Z,102930.09
2024-02-02T22:13:47.898Z,102903.53
2024-02-02T22:16:17.210Z,102923.28
2024-02-02T22:18:47.124Z,102930.88
2024-02-02T22:21:20.058Z,102917.75
2024-02-02T22:23:48.716Z,102922.88
2024-02-02T22:26:20.541Z,102932.09
2024-02-02T22:28:50.824Z,102945.47
2024-02-02T22:31:21.369Z,102901.00
2024-02-02T22:33:52.093Z,102914.00
2024-02-02T22:36:21.984Z,102924.56
2024-02-02T22:38:53.440Z,102906.91
2024-02-02T22:41:32.561Z,102954.75
2024-02-02T22:44:05.045Z,102945.50
2024-02-02T22:46:34.604Z,102954.94
2024-02-02T22:49:03.991Z,102923.28
2024-02-02T22:51:32.816Z,102950.34
2024-02-02T22:54:01.426Z,102919.19
2024-02-02T22:56:30.010Z,102941.38
2024-02-02T22:58:58.588Z,102914.50
2024-02-02T23:01:28.535Z,102892.53
2024-02-02T23:03:57.613Z,102923.59
2024-02-02T23:06:26.337Z,102952.53
2024-02-02T23:08:55.103Z,102950.88
2024-02-02T23:11:23.813Z,102923.63
2024-02-02T23:13:52.389Z,102935.53
2024-02-02T23:16:21.196Z,102930.88
2024-02-02T23:18:51.707Z,102912.53
2024-02-02T23:21:20.366Z,102921.44
2024-02-02T23:23:49.577Z,102916.44
2024-02-02T23:26:18.424Z,102859.84
2024-02-02T23:28:47.133Z,102901.75
2024-02-02T23:31:16.828Z,102892.59
2024-02-02T23:33:45.896Z,102834.00
2024-02-02T23:36:18.810Z,102914.78
2024-02-02T23:38:47.499Z,102920.78
2024-02-02T23:41:17.801Z,102913.50
2024-02-02T23:43:47.085Z,102912.00
2024-02-02T23:46:16.009Z,102890.66
2024-02-02T23:48:46.356Z,102918.66
2024-02-02T23:51:16.582Z,102871.47
2024-02-02T23:53:45.463Z,102922.75
2024-02-02T23:56:14.135Z,102917.44
2024-02-02T23:58:44.104Z,102885.00
